createdAt,value
2022-10-06T00:01:15.651Z,97466.31
2022-10-06T00:03:45.928Z,97441.25
2022-10-06T00:06:15.988Z,97460.38
2022-10-06T00:08:44.589Z,97462.66
2022-10-06T00:11:13.618Z,97460.59
2022-10-06T00:13:41.829Z,97461.63
2022-10-06T00:16:14.355Z,97453.44
2022-10-06T00:18:42.099Z,97467.00
2022-10-06T00:21:11.749Z,97461.25
2022-10-06T00:23:39.508Z,97470.53
2022-10-06T00:26:12.466Z,97469.69
2022-10-06T00:28:40.245Z,97476.28
2022-10-06T00:31:08.090Z,97474.25
2022-10-06T00:33:37.228Z,97481.06
2022-10-06T00:36:05.830Z,97480.25
2022-10-06T00:38:35.249Z,97478.03
2022-10-06T00:41:02.972Z,97477.00
2022-10-06T00:43:49.406Z,97490.31
2022-10-06T00:46:22.915Z,97484.19
2022-10-06T00:48:54.714Z,97485.22
2022-10-06T00:51:23.778Z,97485.44
2022-10-06T00:53:53.108Z,97495.31
2022-10-06T00:56:20.944Z,97486.25
2022-10-06T00:58:50.239Z,97496.31
2022-10-06T01:01:18.481Z,97495.28
2022-10-06T01:03:50.668Z,97490.78
2022-10-06T01:06:18.212Z,97490.78
2022-10-06T01:08:47.068Z,97490.97
2022-10-06T01:11:16.311Z,97499.00
2022-10-06T01:13:46.383Z,97486.66
2022-10-06T01:16:20.105Z,97491.22
2022-10-06T01:18:49.535Z,97488.75
2022-10-06T01:21:27.839Z,97489.13
2022-10-06T01:23:57.322Z,97493.25
2022-10-06T01:26:26.214Z,97491.81
2022-10-06T01:28:54.093Z,97504.78
2022-10-06T01:31:22.298Z,97501.47
2022-10-06T01:33:52.932Z,97507.88
2022-10-06T01:36:21.017Z,97503.75
2022-10-06T01:38:48.807Z,97511.16
2022-10-06T01:41:19.958Z,97514.25
2022-10-06T01:43:47.693Z,97515.25
2022-10-06T01:46:15.505Z,97517.94
2022-10-06T01:48:43.370Z,97511.34
2022-10-06T01:51:14.659Z,97521.22
2022-10-06T01:53:42.348Z,97517.53
2022-10-06T01:56:22.649Z,97524.31
2022-10-06T01:58:51.710Z,97528.84
2022-10-06T02:01:19.530Z,97529.47
2022-10-06T02:03:47.246Z,97533.78
2022-10-06T02:06:14.988Z,97537.31
2022-10-06T02:08:42.727Z,97536.66
2022-10-06T02:11:12.187Z,97531.50
2022-10-06T02:13:40.667Z,97537.25
2022-10-06T02:16:12.410Z,97546.13
2022-10-06T02:18:40.556Z,97546.38
2022-10-06T02:21:14.357Z,97553.75
2022-10-06T02:23:42.104Z,97546.34
2022-10-06T02:26:09.842Z,97545.31
2022-10-06T02:28:37.615Z,97550.03
2022-10-06T02:31:07.399Z,97561.16
2022-10-06T02:33:37.727Z,97562.78
2022-10-06T02:36:06.624Z,97555.34
2022-10-06T02:38:34.731Z,97555.75
2022-10-06T02:41:03.324Z,97558.41
2022-10-06T02:43:31.396Z,97560.50
2022-10-06T02:46:01.273Z,97564.22
2022-10-06T02:48:30.699Z,97565.28
2022-10-06T02:51:01.249Z,97569.38
2022-10-06T02:53:30.423Z,97563.66
2022-10-06T02:56:01.831Z,97564.66
2022-10-06T02:58:31.328Z,97572.28
2022-10-06T03:01:02.732Z,97568.78
2022-10-06T03:03:31.295Z,97578.06
2022-10-06T03:06:05.261Z,97571.66
2022-10-06T03:08:33.576Z,97581.13
2022-10-06T03:11:02.534Z,97579.91
2022-10-06T03:13:31.278Z,97575.19
2022-10-06T03:15:59.327Z,97578.06
2022-10-06T03:18:27.244Z,97571.06
2022-10-06T03:20:55.389Z,97582.41
2022-10-06T03:23:24.436Z,97592.50
2022-10-06T03:25:58.483Z,97594.53
2022-10-06T03:28:26.491Z,97604.22
2022-10-06T03:30:55.091Z,97565.72
2022-10-06T03:33:22.798Z,97593.94
2022-10-06T03:35:59.752Z,97600.72
2022-10-06T03:38:29.263Z,97606.06
2022-10-06T03:41:03.698Z,97609.38
2022-10-06T03:43:31.413Z,97613.06
2022-10-06T03:46:00.863Z,97618.00
2022-10-06T03:48:29.179Z,97618.00
2022-10-06T03:50:58.506Z,97615.13
2022-10-06T03:53:29.730Z,97620.69
2022-10-06T03:56:01.471Z,97619.03
2022-10-06T03:58:29.544Z,97623.75
2022-10-06T04:01:01.887Z,97619.66
2022-10-06T04:03:29.473Z,97626.63
2022-10-06T04:05:58.770Z,97624.59
2022-10-06T04:08:28.353Z,97629.72
2022-10-06T04:10:56.543Z,97639.00
2022-10-06T04:13:24.248Z,97635.06
2022-10-06T04:15:51.895Z,97639.78
2022-10-06T04:18:19.631Z,97642.28
2022-10-06T04:20:47.340Z,97640.25
2022-10-06T04:23:16.167Z,97651.53
2022-10-06T04:25:45.213Z,97633.22
2022-10-06T04:28:12.964Z,97648.84
2022-10-06T04:30:40.694Z,97657.06
2022-10-06T04:33:08.428Z,97656.88
2022-10-06T04:35:36.036Z,97660.78
2022-10-06T04:38:03.701Z,97654.19
2022-10-06T04:40:31.401Z,97656.28
2022-10-06T04:43:00.470Z,97663.03
2022-10-06T04:45:28.347Z,97671.31
2022-10-06T04:47:56.028Z,97677.88
2022-10-06T04:50:23.991Z,97673.34
2022-10-06T04:52:52.292Z,97678.91
2022-10-06T04:55:20.009Z,97679.50
2022-10-06T04:57:47.715Z,97683.00
2022-10-06T05:00:26.735Z,97689.41
2022-10-06T05:02:55.852Z,97693.13
2022-10-06T05:05:23.600Z,97685.50
2022-10-06T05:07:51.412Z,97699.06
2022-10-06T05:10:19.140Z,97706.47
2022-10-06T05:12:46.782Z,97700.72
2022-10-06T05:15:16.648Z,97712.44
2022-10-06T05:17:44.378Z,97710.56
2022-10-06T05:20:12.093Z,97708.31
2022-10-06T05:22:39.760Z,97705.22
2022-10-06T05:25:07.932Z,97708.91
2022-10-06T05:27:35.619Z,97706.25
2022-10-06T05:30:03.301Z,97706.47
2022-10-06T05:32:35.899Z,97716.16
2022-10-06T05:35:04.527Z,97712.66
2022-10-06T05:37:32.238Z,97723.94
2022-10-06T05:40:00.053Z,97726.44
2022-10-06T05:42:29.809Z,97728.34
2022-10-06T05:44:57.679Z,97731.84
2022-10-06T05:47:25.388Z,97737.63
2022-10-06T05:49:54.492Z,97728.38
2022-10-06T05:52:22.285Z,97723.81
2022-10-06T05:54:50.661Z,97727.94
2022-10-06T05:57:18.367Z,97728.56
2022-10-06T05:59:46.046Z,97738.63
2022-10-06T06:02:13.829Z,97739.47
2022-10-06T06:04:41.589Z,97740.69
2022-10-06T06:07:10.718Z,97737.38
2022-10-06T06:09:38.409Z,97732.88
2022-10-06T06:12:06.242Z,97742.75
2022-10-06T06:14:50.651Z,97741.72
2022-10-06T06:17:18.378Z,97744.59
2022-10-06T06:19:46.051Z,97747.72
2022-10-06T06:22:15.099Z,97733.91
2022-10-06T06:24:42.754Z,97745.88
2022-10-06T06:27:10.453Z,97740.50
2022-10-06T06:29:40.061Z,97746.53
2022-10-06T06:32:08.267Z,97735.13
2022-10-06T06:34:35.957Z,97743.38
2022-10-06T06:37:06.914Z,97749.06
2022-10-06T06:39:38.573Z,97745.81
2022-10-06T06:42:08.561Z,97744.69
2022-10-06T06:44:36.245Z,97743.59
2022-10-06T06:47:03.970Z,97749.09
2022-10-06T06:49:31.635Z,97750.31
2022-10-06T06:51:59.340Z,97743.97
2022-10-06T06:54:27.645Z,97746.69
2022-10-06T06:56:56.750Z,97744.75
2022-10-06T06:59:25.208Z,97759.25
2022-10-06T07:01:53.097Z,97750.59
2022-10-06T07:04:21.027Z,97755.91
2022-10-06T07:06:53.198Z,97749.44
2022-10-06T07:09:21.067Z,97752.91
2022-10-06T07:11:50.137Z,97755.19
2022-10-06T07:14:22.454Z,97758.94
2022-10-06T07:17:07.498Z,97760.88
2022-10-06T07:19:52.718Z,97762.31
2022-10-06T07:22:41.083Z,97755.75
2022-10-06T07:25:15.007Z,97755.97
2022-10-06T07:27:44.335Z,97757.72
2022-10-06T07:30:17.925Z,97757.38
2022-10-06T07:32:46.099Z,97755.91
2022-10-06T07:35:16.566Z,97761.88
2022-10-06T07:37:44.300Z,97762.22
2022-10-06T07:40:13.088Z,97759.53
2022-10-06T07:42:52.308Z,97763.50
2022-10-06T07:45:41.021Z,97764.59
2022-10-06T07:48:11.821Z,97761.47
2022-10-06T07:50:40.346Z,97764.53
2022-10-06T07:53:08.847Z,97766.31
2022-10-06T07:55:39.915Z,97766.09
2022-10-06T07:58:11.582Z,97768.38
2022-10-06T08:00:40.679Z,97772.06
2022-10-06T08:03:09.382Z,97767.94
2022-10-06T08:05:39.092Z,97770.06
2022-10-06T08:08:07.012Z,97767.19
2022-10-06T08:10:34.718Z,97775.44
2022-10-06T08:13:06.244Z,97763.06
2022-10-06T08:15:33.930Z,97762.81
2022-10-06T08:18:12.169Z,97768.78
2022-10-06T08:20:49.415Z,97767.66
2022-10-06T08:23:17.152Z,97763.50
2022-10-06T08:25:51.043Z,97766.63
2022-10-06T08:28:19.075Z,97764.94
2022-10-06T08:30:47.299Z,97757.66
2022-10-06T08:33:18.183Z,97762.16
2022-10-06T08:35:48.859Z,97764.56
2022-10-06T08:38:16.526Z,97765.47
2022-10-06T08:40:45.806Z,97768.91
2022-10-06T08:43:18.706Z,97764.09
2022-10-06T08:45:48.629Z,97774.75
2022-10-06T08:48:19.805Z,97768.72
2022-10-06T08:50:59.648Z,97774.47
2022-10-06T08:53:35.600Z,97775.75
2022-10-06T08:56:12.552Z,97774.91
2022-10-06T08:58:52.831Z,97768.59
2022-10-06T09:01:23.459Z,97773.09
2022-10-06T09:03:54.882Z,97774.72
2022-10-06T09:06:51.229Z,97771.66
2022-10-06T09:09:28.463Z,97769.66
2022-10-06T09:12:06.844Z,97762.94
2022-10-06T09:14:41.129Z,97761.16
2022-10-06T09:17:14.162Z,97764.06
2022-10-06T09:19:47.434Z,97771.00
2022-10-06T09:22:20.428Z,97775.00
2022-10-06T09:24:50.899Z,97753.59
2022-10-06T09:27:21.998Z,97761.19
2022-10-06T09:29:50.636Z,97759.47
2022-10-06T09:32:19.697Z,97765.13
2022-10-06T09:34:51.841Z,97768.13
2022-10-06T09:37:20.121Z,97762.56
2022-10-06T09:39:50.833Z,97774.91
2022-10-06T09:42:22.718Z,97766.75
2022-10-06T09:44:58.149Z,97761.09
2022-10-06T09:47:36.454Z,97758.03
2022-10-06T09:50:23.457Z,97759.50
2022-10-06T09:53:12.038Z,97757.13
2022-10-06T09:55:46.524Z,97760.13
2022-10-06T09:58:21.438Z,97758.03
2022-10-06T10:00:53.897Z,97755.63
2022-10-06T10:03:22.614Z,97763.09
2022-10-06T10:05:54.802Z,97754.13
2022-10-06T10:08:25.083Z,97743.13
2022-10-06T10:11:33.166Z,97740.34
2022-10-06T10:14:01.277Z,97736.03
2022-10-06T10:16:34.638Z,97735.78
2022-10-06T10:19:05.628Z,97741.50
2022-10-06T10:21:37.085Z,97742.53
2022-10-06T10:24:15.807Z,97736.94
2022-10-06T10:26:53.713Z,97736.72
2022-10-06T10:29:41.850Z,97737.00
2022-10-06T10:32:15.485Z,97739.81
2022-10-06T10:35:00.167Z,97730.53
2022-10-06T10:37:36.108Z,97740.44
2022-10-06T10:40:13.013Z,97736.03
2022-10-06T10:42:47.147Z,97736.00
2022-10-06T10:45:20.277Z,97734.75
2022-10-06T10:47:50.219Z,97740.81
2022-10-06T10:50:25.618Z,97738.28
2022-10-06T10:52:58.939Z,97738.13
2022-10-06T10:55:30.818Z,97737.53
2022-10-06T10:58:05.438Z,97734.41
2022-10-06T11:00:39.526Z,97733.03
2022-10-06T11:03:10.020Z,97732.84
2022-10-06T11:05:53.642Z,97724.19
2022-10-06T11:08:29.563Z,97720.38
2022-10-06T11:10:59.761Z,97727.84
2022-10-06T11:13:33.803Z,97721.19
2022-10-06T11:16:19.992Z,97719.19
2022-10-06T11:19:09.364Z,97727.53
2022-10-06T11:21:42.884Z,97721.06
2022-10-06T11:24:18.315Z,97710.00
2022-10-06T11:27:10.588Z,97716.78
2022-10-06T11:29:48.851Z,97711.75
2022-10-06T11:32:26.680Z,97713.34
2022-10-06T11:34:54.838Z,97712.84
2022-10-06T11:37:34.889Z,97709.59
2022-10-06T11:40:24.765Z,97696.59
2022-10-06T11:42:59.880Z,97706.75
2022-10-06T11:45:35.552Z,97709.28
2022-10-06T11:48:22.140Z,97703.34
2022-10-06T11:50:53.069Z,97695.88
2022-10-06T11:53:38.270Z,97701.88
2022-10-06T11:56:36.719Z,97689.03
2022-10-06T11:59:31.301Z,97695.56
2022-10-06T12:02:00.746Z,97685.16
2022-10-06T12:04:28.983Z,97685.22
2022-10-06T12:07:01.493Z,97686.78
2022-10-06T12:09:46.085Z,97682.66
2022-10-06T12:13:05.795Z,97681.97
2022-10-06T12:19:23.202Z,97663.19
2022-10-06T12:21:59.164Z,97665.72
2022-10-06T12:24:33.778Z,97665.03
2022-10-06T12:27:26.236Z,97649.00
2022-10-06T12:30:02.948Z,97652.72
2022-10-06T12:32:50.129Z,97646.91
2022-10-06T12:35:24.859Z,97649.84
2022-10-06T12:37:54.699Z,97649.06
2022-10-06T12:40:49.189Z,97652.50
2022-10-06T12:43:57.412Z,97646.16
2022-10-06T12:46:46.112Z,97658.75
2022-10-06T12:49:37.064Z,97647.69
2022-10-06T12:52:27.811Z,97644.66
2022-10-06T12:55:08.433Z,97645.63
2022-10-06T12:57:47.111Z,97643.78
2022-10-06T13:03:01.399Z,97640.19
2022-10-06T13:05:29.965Z,97639.13
2022-10-06T13:07:59.453Z,97642.09
2022-10-06T13:10:29.283Z,97639.53
2022-10-06T13:12:58.885Z,97637.63
2022-10-06T13:15:33.362Z,97637.63
2022-10-06T13:18:11.408Z,97631.38
2022-10-06T13:20:42.726Z,97630.81
2022-10-06T13:23:23.936Z,97631.38
2022-10-06T13:25:57.617Z,97633.25
2022-10-06T13:28:31.934Z,97628.56
2022-10-06T13:33:37.084Z,97621.00
2022-10-06T13:36:05.363Z,97631.94
2022-10-06T13:38:35.127Z,97631.44
2022-10-06T13:41:22.659Z,97620.88
2022-10-06T13:43:53.798Z,97609.75
2022-10-06T13:46:24.657Z,97612.09
2022-10-06T13:48:56.605Z,97618.31
2022-10-06T13:51:29.755Z,97612.44
2022-10-06T13:53:58.888Z,97606.06
2022-10-06T13:59:16.843Z,97606.72
2022-10-06T14:01:44.706Z,97612.69
2022-10-06T14:04:14.865Z,97600.41
2022-10-06T14:06:49.878Z,97605.63
2022-10-06T14:09:23.568Z,97592.13
2022-10-06T14:11:52.030Z,97601.53
2022-10-06T14:14:19.822Z,97606.16
2022-10-06T14:16:49.448Z,97595.44
2022-10-06T14:19:36.618Z,97605.69
2022-10-06T14:22:06.122Z,97604.16
2022-10-06T14:24:37.255Z,97599.34
2022-10-06T14:27:06.909Z,97602.88
2022-10-06T14:29:37.787Z,97596.97
2022-10-06T14:32:11.395Z,97596.47
2022-10-06T14:34:47.718Z,97599.47
2022-10-06T14:37:16.213Z,97597.59
2022-10-06T14:39:44.929Z,97590.72
2022-10-06T14:42:14.396Z,97581.69
2022-10-06T14:44:43.157Z,97584.16
2022-10-06T14:47:11.104Z,97582.50
2022-10-06T14:49:40.683Z,97592.38
2022-10-06T14:52:10.499Z,97587.09
2022-10-06T14:54:38.303Z,97583.69
2022-10-06T14:57:05.974Z,97580.31
2022-10-06T14:59:33.683Z,97580.28
2022-10-06T15:02:01.387Z,97578.56
2022-10-06T15:04:29.264Z,97578.44
2022-10-06T15:07:15.555Z,97573.88
2022-10-06T15:09:43.681Z,97573.56
2022-10-06T15:12:11.479Z,97572.91
2022-10-06T15:14:39.837Z,97572.88
2022-10-06T15:17:07.852Z,97574.50
2022-10-06T15:19:35.516Z,97571.28
2022-10-06T15:22:06.255Z,97580.31
2022-10-06T15:24:33.950Z,97568.19
2022-10-06T15:27:23.909Z,97569.84
2022-10-06T15:29:52.568Z,97561.06
2022-10-06T15:32:20.398Z,97550.69
2022-10-06T15:34:48.110Z,97560.97
2022-10-06T15:37:19.901Z,97549.53
2022-10-06T15:39:47.887Z,97565.56
2022-10-06T15:42:18.652Z,97560.59
2022-10-06T15:44:46.326Z,97561.78
2022-10-06T15:47:14.209Z,97557.16
2022-10-06T15:49:41.928Z,97540.84
2022-10-06T15:52:12.869Z,97555.63
2022-10-06T15:54:42.360Z,97564.72
2022-10-06T15:57:17.900Z,97561.88
2022-10-06T15:59:48.253Z,97557.78
2022-10-06T16:02:17.978Z,97560.13
2022-10-06T16:04:57.547Z,97563.03
2022-10-06T16:07:25.360Z,97568.75
2022-10-06T16:09:54.434Z,97562.72
2022-10-06T16:12:25.151Z,97557.69
2022-10-06T16:14:53.218Z,97548.41
2022-10-06T16:17:21.060Z,97567.81
2022-10-06T16:19:48.864Z,97567.03
2022-10-06T16:22:19.411Z,97570.16
2022-10-06T16:24:47.163Z,97566.94
2022-10-06T16:27:17.168Z,97564.25
2022-10-06T16:29:44.817Z,97569.66
2022-10-06T16:32:12.652Z,97568.50
2022-10-06T16:34:40.363Z,97572.75
2022-10-06T16:37:08.071Z,97577.84
2022-10-06T16:39:35.729Z,97573.00
2022-10-06T16:42:03.785Z,97579.78
2022-10-06T16:44:32.886Z,97572.84
2022-10-06T16:47:00.621Z,97571.88
2022-10-06T16:49:28.368Z,97585.69
2022-10-06T16:51:56.122Z,97580.09
2022-10-06T16:54:23.886Z,97572.88
2022-10-06T16:56:54.152Z,97578.94
2022-10-06T16:59:23.491Z,97570.41
2022-10-06T17:01:52.884Z,97571.25
2022-10-06T17:04:22.268Z,97573.97
2022-10-06T17:06:52.111Z,97569.34
2022-10-06T17:09:21.164Z,97578.44
2022-10-06T17:11:50.993Z,97579.41
2022-10-06T17:14:19.668Z,97581.19
2022-10-06T17:16:49.139Z,97582.72
2022-10-06T17:19:20.249Z,97589.25
2022-10-06T17:21:51.533Z,97591.25
2022-10-06T17:24:22.568Z,97586.47
2022-10-06T17:26:51.109Z,97597.69
2022-10-06T17:29:21.464Z,97588.09
2022-10-06T17:31:50.843Z,97602.53
2022-10-06T17:34:22.484Z,97599.00
2022-10-06T17:36:53.047Z,97603.81
2022-10-06T17:39:22.880Z,97604.63
2022-10-06T17:41:52.481Z,97606.41
2022-10-06T17:44:22.518Z,97607.19
2022-10-06T17:46:52.458Z,97603.59
2022-10-06T17:49:22.572Z,97605.22
2022-10-06T17:51:51.386Z,97606.41
2022-10-06T17:54:21.090Z,97611.09
2022-10-06T17:56:50.383Z,97599.25
2022-10-06T17:59:21.068Z,97612.50
2022-10-06T18:01:49.018Z,97610.03
2022-10-06T18:04:16.808Z,97609.25
2022-10-06T18:06:47.130Z,97610.75
2022-10-06T18:09:15.620Z,97613.31
2022-10-06T18:11:44.049Z,97610.47
2022-10-06T18:14:13.667Z,97608.13
2022-10-06T18:16:43.068Z,97612.59
2022-10-06T18:19:13.183Z,97604.75
2022-10-06T18:21:42.846Z,97603.91
2022-10-06T18:24:15.211Z,97607.09
2022-10-06T18:26:43.475Z,97609.09
2022-10-06T18:29:12.423Z,97604.28
2022-10-06T18:31:40.191Z,97609.09
2022-10-06T18:36:56.541Z,97617.13
2022-10-06T18:39:25.611Z,97623.59
2022-10-06T18:41:53.637Z,97615.16
2022-10-06T18:44:35.293Z,97618.88
2022-10-06T18:47:20.264Z,97618.28
2022-10-06T18:49:48.016Z,97617.72
2022-10-06T18:52:16.062Z,97618.28
2022-10-06T18:54:45.604Z,97618.16
2022-10-06T18:57:13.304Z,97615.69
2022-10-06T18:59:40.981Z,97621.34
2022-10-06T19:02:08.838Z,97618.03
2022-10-06T19:04:36.712Z,97615.34
2022-10-06T19:07:04.444Z,97618.16
2022-10-06T19:09:32.166Z,97615.47
2022-10-06T19:12:01.852Z,97620.03
2022-10-06T19:14:31.747Z,97617.19
2022-10-06T19:17:02.141Z,97627.84
2022-10-06T19:19:31.196Z,97622.81
2022-10-06T19:22:00.619Z,97622.81
2022-10-06T19:24:31.227Z,97622.59
2022-10-06T19:26:59.486Z,97621.75
2022-10-06T19:29:30.070Z,97622.22
2022-10-06T19:31:59.637Z,97626.19
2022-10-06T19:34:28.649Z,97619.53
2022-10-06T19:36:58.193Z,97626.50
2022-10-06T19:39:27.135Z,97625.94
2022-10-06T19:42:12.589Z,97629.69
2022-10-06T19:44:43.267Z,97623.72
2022-10-06T19:47:14.647Z,97622.53
2022-10-06T19:49:42.803Z,97630.94
2022-10-06T19:52:12.434Z,97620.13
2022-10-06T19:54:41.941Z,97622.88
2022-10-06T19:57:11.483Z,97622.03
2022-10-06T19:59:39.318Z,97623.94
2022-10-06T20:02:10.126Z,97619.22
2022-10-06T20:04:38.109Z,97618.84
2022-10-06T20:07:06.042Z,97624.25
2022-10-06T20:09:33.863Z,97626.00
2022-10-06T20:12:02.305Z,97628.56
2022-10-06T20:14:30.323Z,97622.03
2022-10-06T20:16:58.503Z,97619.81
2022-10-06T20:19:27.704Z,97614.31
2022-10-06T20:21:55.520Z,97613.84
2022-10-06T20:24:25.690Z,97615.59
2022-10-06T20:26:54.646Z,97624.34
2022-10-06T20:29:24.101Z,97624.09
2022-10-06T20:31:53.826Z,97617.69
2022-10-06T20:34:24.604Z,97616.13
2022-10-06T20:36:56.155Z,97615.09
2022-10-06T20:39:41.954Z,97608.66
2022-10-06T20:42:15.014Z,97613.88
2022-10-06T20:44:43.239Z,97609.41
2022-10-06T20:47:11.163Z,97613.75
2022-10-06T20:49:38.930Z,97613.91
2022-10-06T20:52:09.831Z,97614.34
2022-10-06T20:54:37.684Z,97617.25
2022-10-06T20:57:09.663Z,97616.81
2022-10-06T20:59:37.520Z,97609.78
2022-10-06T21:02:06.875Z,97611.88
2022-10-06T21:04:34.945Z,97607.31
2022-10-06T21:07:05.672Z,97613.97
2022-10-06T21:09:34.730Z,97601.59
2022-10-06T21:12:04.444Z,97615.25
2022-10-06T21:14:33.962Z,97605.97
2022-10-06T21:17:01.804Z,97605.97
2022-10-06T21:19:29.932Z,97607.63
2022-10-06T21:21:57.693Z,97612.19
2022-10-06T21:24:25.408Z,97604.50
2022-10-06T21:26:54.468Z,97605.06
2022-10-06T21:29:22.577Z,97603.91
2022-10-06T21:31:50.244Z,97600.38
2022-10-06T21:34:17.918Z,97596.06
2022-10-06T21:36:45.616Z,97597.34
2022-10-06T21:39:14.250Z,97609.34
2022-10-06T21:41:42.567Z,97597.34
2022-10-06T21:44:13.156Z,97604.19
2022-10-06T21:46:42.914Z,97603.00
2022-10-06T21:49:12.514Z,97599.28
2022-10-06T21:51:42.278Z,97586.59
2022-10-06T21:54:11.037Z,97583.78
2022-10-06T21:56:40.116Z,97599.78
2022-10-06T21:59:08.425Z,97595.28
2022-10-06T22:01:39.157Z,97588.84
2022-10-06T22:04:07.373Z,97600.31
2022-10-06T22:06:37.263Z,97572.78
2022-10-06T22:09:06.538Z,97594.81
2022-10-06T22:11:37.595Z,97591.69
2022-10-06T22:14:07.224Z,97591.75
2022-10-06T22:16:37.710Z,97582.72
2022-10-06T22:19:07.451Z,97596.75
2022-10-06T22:21:36.698Z,97589.75
2022-10-06T22:24:06.376Z,97590.78
2022-10-06T22:26:37.329Z,97589.97
2022-10-06T22:29:06.295Z,97581.44
2022-10-06T22:31:34.443Z,97585.63
2022-10-06T22:34:05.289Z,97583.75
2022-10-06T22:36:33.319Z,97575.94
2022-10-06T22:39:01.561Z,97582.41
2022-10-06T22:41:29.874Z,97582.84
2022-10-06T22:43:59.272Z,97579.59
2022-10-06T22:46:28.134Z,97575.84
2022-10-06T22:48:56.221Z,97580.84
2022-10-06T22:51:25.782Z,97575.09
2022-10-06T22:53:57.652Z,97576.75
2022-10-06T22:56:26.509Z,97576.75
2022-10-06T22:58:54.223Z,97565.53
2022-10-06T23:01:22.226Z,97565.38
2022-10-06T23:03:50.971Z,97566.88
2022-10-06T23:06:19.189Z,97543.88
2022-10-06T23:08:48.286Z,97567.31
2022-10-06T23:11:19.139Z,97570.00
2022-10-06T23:13:48.385Z,97568.22
2022-10-06T23:16:17.740Z,97560.59
2022-10-06T23:18:46.207Z,97563.44
2022-10-06T23:21:19.206Z,97569.47
2022-10-06T23:23:49.215Z,97562.25
2022-10-06T23:26:18.833Z,97546.03
2022-10-06T23:28:47.712Z,97550.97
2022-10-06T23:31:15.420Z,97550.19
2022-10-06T23:33:43.116Z,97555.34
2022-10-06T23:36:12.739Z,97558.03
2022-10-06T23:38:42.116Z,97557.44
2022-10-06T23:41:11.308Z,97553.78
2022-10-06T23:43:39.036Z,97559.41
2022-10-06T23:46:07.061Z,97544.56
2022-10-06T23:48:35.051Z,97547.41
2022-10-06T23:51:05.579Z,97556.88
2022-10-06T23:53:33.375Z,97554.41
2022-10-06T23:56:01.126Z,97546.78
2022-10-06T23:58:30.299Z,97553.56
